Time;durP1;ratioP1;P1;durP2;ratioP2;P2;SDS_P1;SDS_P2;PMS_P1;PMS_P2;Temp;Humidity;BMP_temperature;BMP_pressure;BME280_temperature;BME280_humidity;BME280_pressure;Samples;Min_cycle;Max_cycle;Signal;HPM_P1;HPM_P2
2021/10/02 00:44:57;;;;;;;6.40;4.53;;;;;;;;;;5049439;28;20107;-58
2021/10/02 00:47:23;;;;;;;8.57;5.27;;;;;;;;;;5046435;28;20029;-58
2021/10/02 00:49:50;;;;;;;5.50;3.80;;;;;;;;;;5028857;28;20026;-60
2021/10/02 00:52:17;;;;;;;6.37;4.00;;;;;;;;;;5031004;28;20036;-58
2021/10/02 00:54:43;;;;;;;6.03;4.13;;;;;;;;;;5030658;28;20021;-59
2021/10/02 00:57:09;;;;;;;9.30;5.33;;;;;;;;;;5031441;28;20033;-57
2021/10/02 00:59:34;;;;;;;5.03;4.17;;;;;;;;;;5046736;28;20131;-59
2021/10/02 01:02:18;;;;;;;6.37;4.47;;;;;;;;;;5053355;28;20016;-58
2021/10/02 01:05:02;;;;;;;6.43;4.77;;;;;;;;;;5050165;28;20025;-58
2021/10/02 01:07:33;;;;;;;6.40;4.40;;;;;;;;;;5031645;28;20475;-58
2021/10/02 01:10:10;;;;;;;5.63;4.47;;;;;;;;;;5029466;28;20032;-57
2021/10/02 01:12:45;;;;;;;5.57;4.47;;;;;;;;;;5050562;28;20104;-59
2021/10/02 01:15:13;;;;;;;8.77;4.88;;;;;;;;;;5048031;28;20032;-59
2021/10/02 01:17:52;;;;;;;4.83;4.20;;;;;;;;;;5046258;28;20040;-58
2021/10/02 01:20:26;;;;;;;5.73;4.53;;;;;;;;;;5045497;28;20021;-59
2021/10/02 01:23:00;;;;;;;9.30;4.15;;;;;;;;;;5051552;28;20475;-59
2021/10/02 01:25:29;;;;;;;6.03;4.30;;;;;;;;;;5042234;28;20423;-59
2021/10/02 01:28:13;;;;;;;5.37;4.00;;;;;;;;;;5047472;28;20037;-59
2021/10/02 01:33:33;;;;;;;5.27;3.93;;;;;;;;;;5031891;28;20061;-59
2021/10/02 01:47:14;;;;;;;4.95;3.58;;;;;;;;;;4956883;28;20458;-57
2021/10/02 01:49:41;;;;;;;5.77;4.10;;;;;;;;;;4959774;28;20078;-58
2021/10/02 01:52:07;;;;;;;6.50;4.13;;;;;;;;;;4961182;28;20057;-58
2021/10/02 01:54:33;;;;;;;5.07;4.13;;;;;;;;;;4964892;28;20054;-58
2021/10/02 01:56:59;;;;;;;5.83;4.00;;;;;;;;;;4965868;28;20185;-58
2021/10/02 01:59:27;;;;;;;5.30;3.73;;;;;;;;;;4966981;28;20422;-57
2021/10/02 02:01:53;;;;;;;7.57;4.77;;;;;;;;;;4970176;28;20023;-60
2021/10/02 02:04:19;;;;;;;9.90;4.80;;;;;;;;;;4962680;28;20084;-58
2021/10/02 02:06:46;;;;;;;7.10;4.53;;;;;;;;;;4967112;28;20018;-59
2021/10/02 02:09:12;;;;;;;6.73;3.93;;;;;;;;;;4967868;28;20484;-58
2021/10/02 02:11:39;;;;;;;7.30;3.80;;;;;;;;;;4963114;28;20106;-61
2021/10/02 02:14:04;;;;;;;5.20;4.00;;;;;;;;;;4949307;28;20031;-58
2021/10/02 02:16:30;;;;;;;6.53;4.73;;;;;;;;;;5021309;28;20160;-59
2021/10/02 02:18:56;;;;;;;6.40;4.10;;;;;;;;;;5036781;28;20078;-58
2021/10/02 02:21:22;;;;;;;5.57;4.07;;;;;;;;;;5036941;28;20123;-59
2021/10/02 02:23:47;;;;;;;4.93;4.00;;;;;;;;;;5033110;28;20025;-58
2021/10/02 02:26:13;;;;;;;4.10;3.70;;;;;;;;;;5035818;28;20049;-59
2021/10/02 02:28:39;;;;;;;5.03;4.03;;;;;;;;;;5037763;28;20040;-57
2021/10/02 02:31:05;;;;;;;4.00;3.57;;;;;;;;;;5035296;28;20483;-59
2021/10/02 02:33:31;;;;;;;4.33;3.93;;;;;;;;;;5033191;28;20033;-59
2021/10/02 02:35:56;;;;;;;5.57;3.77;;;;;;;;;;5034427;28;20032;-58
2021/10/02 02:38:21;;;;;;;5.03;4.03;;;;;;;;;;5038987;28;20483;-56
2021/10/02 02:40:47;;;;;;;5.00;4.30;;;;;;;;;;5035794;28;20017;-54
2021/10/02 02:43:13;;;;;;;6.40;3.83;;;;;;;;;;5034173;28;20120;-59
2021/10/02 02:45:41;;;;;;;4.63;3.90;;;;;;;;;;5037002;28;20100;-58
2021/10/02 02:48:09;;;;;;;3.83;3.50;;;;;;;;;;5036682;28;20025;-58
2021/10/02 02:50:34;;;;;;;5.07;4.10;;;;;;;;;;5037414;28;20047;-60
2021/10/02 02:53:02;;;;;;;4.53;4.03;;;;;;;;;;5038172;28;20149;-59
2021/10/02 02:55:33;;;;;;;4.53;3.37;;;;;;;;;;5040606;28;20482;-56
2021/10/02 02:58:04;;;;;;;5.13;3.80;;;;;;;;;;5040252;28;20032;-59
2021/10/02 03:00:30;;;;;;;4.87;3.50;;;;;;;;;;5036354;28;20028;-56
2021/10/02 03:02:55;;;;;;;4.50;3.53;;;;;;;;;;5037256;28;20025;-55
2021/10/02 03:05:21;;;;;;;4.30;3.50;;;;;;;;;;5040542;28;20466;-58
2021/10/02 03:07:57;;;;;;;4.87;3.60;;;;;;;;;;5040165;28;20021;-53
2021/10/02 03:10:23;;;;;;;3.97;3.53;;;;;;;;;;5038647;28;20084;-55
2021/10/02 03:12:51;;;;;;;5.60;3.20;;;;;;;;;;5046247;28;20029;-57
2021/10/02 03:15:16;;;;;;;4.00;3.40;;;;;;;;;;5048935;28;20025;-57
2021/10/02 03:17:43;;;;;;;4.73;3.73;;;;;;;;;;5042012;28;20065;-55
2021/10/02 03:20:11;;;;;;;5.23;3.60;;;;;;;;;;5037403;28;20025;-57
2021/10/02 03:22:36;;;;;;;4.90;3.30;;;;;;;;;;5037357;28;20034;-54
2021/10/02 03:25:02;;;;;;;4.80;3.47;;;;;;;;;;5041253;28;20340;-58
2021/10/02 03:27:28;;;;;;;5.77;3.53;;;;;;;;;;5039188;28;20021;-63
2021/10/02 03:29:54;;;;;;;6.60;3.70;;;;;;;;;;5034596;28;20025;-57
2021/10/02 03:32:20;;;;;;;5.83;3.20;;;;;;;;;;5036445;28;20352;-57
2021/10/02 03:34:45;;;;;;;3.50;3.20;;;;;;;;;;5041018;28;20017;-57
2021/10/02 03:37:11;;;;;;;6.10;2.97;;;;;;;;;;5042600;28;20032;-58
2021/10/02 03:39:36;;;;;;;3.13;2.80;;;;;;;;;;5049600;28;20028;-60
2021/10/02 03:42:12;;;;;;;2.83;2.50;;;;;;;;;;5043073;28;20428;-60
2021/10/02 03:44:41;;;;;;;4.47;3.20;;;;;;;;;;5035179;28;20026;-58
2021/10/02 03:47:07;;;;;;;3.13;2.83;;;;;;;;;;5032910;28;20021;-59
2021/10/02 03:49:32;;;;;;;3.13;2.70;;;;;;;;;;5030497;28;20025;-58
2021/10/02 03:51:58;;;;;;;3.40;3.10;;;;;;;;;;5033554;28;20025;-57
2021/10/02 03:54:23;;;;;;;2.93;2.60;;;;;;;;;;5049965;28;20013;-59
2021/10/02 03:56:48;;;;;;;3.17;2.90;;;;;;;;;;5040980;28;20028;-59
2021/10/02 03:59:13;;;;;;;3.00;2.70;;;;;;;;;;5030381;28;20052;-58
2021/10/02 04:01:39;;;;;;;4.30;3.90;;;;;;;;;;5032335;28;20375;-55
2021/10/02 04:04:04;;;;;;;4.37;2.83;;;;;;;;;;5035560;28;20049;-57
2021/10/02 04:06:29;;;;;;;4.77;3.13;;;;;;;;;;5032669;28;20025;-57
2021/10/02 04:08:54;;;;;;;3.90;3.50;;;;;;;;;;5033123;28;20031;-59
2021/10/02 04:11:20;;;;;;;4.27;3.30;;;;;;;;;;5033604;28;20400;-59
2021/10/02 04:13:45;;;;;;;3.33;3.03;;;;;;;;;;5045210;28;20055;-59
2021/10/02 04:16:10;;;;;;;6.23;3.07;;;;;;;;;;5054768;28;20514;-59
2021/10/02 04:18:35;;;;;;;4.57;3.43;;;;;;;;;;5044458;28;20044;-60
2021/10/02 04:21:01;;;;;;;3.30;2.97;;;;;;;;;;5034567;28;20036;-60
2021/10/02 04:23:26;;;;;;;5.07;3.63;;;;;;;;;;5036992;28;20025;-56
2021/10/02 04:25:52;;;;;;;2.87;2.67;;;;;;;;;;5032604;28;20408;-59
2021/10/02 04:28:17;;;;;;;3.23;3.00;;;;;;;;;;5029404;28;20084;-59
2021/10/02 04:30:43;;;;;;;3.23;2.93;;;;;;;;;;5031160;28;20033;-58
2021/10/02 04:33:08;;;;;;;3.63;2.80;;;;;;;;;;5033700;28;20035;-59
2021/10/02 04:35:34;;;;;;;3.13;2.67;;;;;;;;;;5047091;28;20132;-58
2021/10/02 04:37:59;;;;;;;3.33;2.90;;;;;;;;;;5047788;28;20029;-59
2021/10/02 04:40:24;;;;;;;3.63;3.33;;;;;;;;;;5047228;28;20100;-59
2021/10/02 04:42:50;;;;;;;3.33;3.07;;;;;;;;;;5052619;28;20029;-57
2021/10/02 04:45:18;;;;;;;3.20;2.90;;;;;;;;;;5047959;28;20470;-57
2021/10/02 04:47:44;;;;;;;3.57;2.93;;;;;;;;;;5048659;28;20051;-58
2021/10/02 04:50:09;;;;;;;3.50;3.20;;;;;;;;;;5051017;28;20025;-55
2021/10/02 04:52:34;;;;;;;3.20;2.90;;;;;;;;;;5046610;28;20051;-59
2021/10/02 04:55:00;;;;;;;4.17;3.17;;;;;;;;;;5047704;28;20438;-57
2021/10/02 04:57:25;;;;;;;3.43;3.13;;;;;;;;;;5045167;28;20079;-58
2021/10/02 04:59:50;;;;;;;3.43;2.90;;;;;;;;;;5051888;28;20025;-58
2021/10/02 05:02:16;;;;;;;3.60;3.30;;;;;;;;;;5045237;28;20057;-59
2021/10/02 05:04:41;;;;;;;5.10;3.20;;;;;;;;;;5029519;28;20048;-58
2021/10/02 05:07:06;;;;;;;3.20;2.90;;;;;;;;;;5030133;28;20463;-57
2021/10/02 05:09:31;;;;;;;2.93;2.73;;;;;;;;;;5031195;28;20021;-60
2021/10/02 05:11:57;;;;;;;6.67;3.40;;;;;;;;;;5030444;28;20068;-58
2021/10/02 05:14:22;;;;;;;3.43;3.13;;;;;;;;;;5027598;28;20552;-56
2021/10/02 05:16:47;;;;;;;3.43;3.00;;;;;;;;;;5032116;28;20057;-57
2021/10/02 05:19:13;;;;;;;4.67;3.53;;;;;;;;;;5031986;28;20048;-58
2021/10/02 05:21:38;;;;;;;3.03;2.83;;;;;;;;;;5039915;28;20021;-56
2021/10/02 05:24:03;;;;;;;3.23;2.93;;;;;;;;;;5047823;28;20075;-55
2021/10/02 05:26:28;;;;;;;4.70;3.07;;;;;;;;;;5028254;28;20403;-59
2021/10/02 05:28:54;;;;;;;3.70;3.23;;;;;;;;;;5031094;28;20560;-59
2021/10/02 05:31:19;;;;;;;4.00;3.63;;;;;;;;;;5030167;28;20036;-59
2021/10/02 05:33:44;;;;;;;3.83;3.20;;;;;;;;;;5028244;28;20064;-59
2021/10/02 05:36:09;;;;;;;4.53;3.40;;;;;;;;;;5032240;28;20095;-59
2021/10/02 05:38:35;;;;;;;3.67;3.20;;;;;;;;;;5032086;28;20026;-58
2021/10/02 05:41:00;;;;;;;4.13;3.67;;;;;;;;;;5029693;28;20060;-54
2021/10/02 05:43:25;;;;;;;4.03;3.10;;;;;;;;;;5048260;28;20028;-58
2021/10/02 05:45:51;;;;;;;3.40;3.10;;;;;;;;;;5047847;28;20033;-55
2021/10/02 05:48:16;;;;;;;3.50;3.03;;;;;;;;;;5031741;28;20021;-53
2021/10/02 05:50:42;;;;;;;4.70;3.40;;;;;;;;;;5028470;28;20083;-56
2021/10/02 05:53:07;;;;;;;4.20;3.43;;;;;;;;;;5044301;28;20029;-57
2021/10/02 05:55:32;;;;;;;3.50;2.83;;;;;;;;;;5050462;28;20037;-57
2021/10/02 05:57:58;;;;;;;4.17;3.17;;;;;;;;;;5031126;28;20079;-58
2021/10/02 06:00:23;;;;;;;4.63;3.60;;;;;;;;;;5027009;28;20033;-59
2021/10/02 06:02:48;;;;;;;3.77;3.37;;;;;;;;;;5028789;28;20031;-55
2021/10/02 06:05:13;;;;;;;5.77;3.23;;;;;;;;;;5030036;28;20033;-58
2021/10/02 06:07:39;;;;;;;4.27;3.57;;;;;;;;;;5030333;28;20053;-57
2021/10/02 06:10:04;;;;;;;3.27;2.97;;;;;;;;;;5026568;28;20028;-58
2021/10/02 06:12:29;;;;;;;4.57;3.07;;;;;;;;;;5031944;28;20113;-56
2021/10/02 06:14:55;;;;;;;4.30;3.60;;;;;;;;;;5035585;28;20048;-58
2021/10/02 06:17:20;;;;;;;6.00;3.67;;;;;;;;;;5037839;28;20090;-58
2021/10/02 06:19:45;;;;;;;4.50;3.97;;;;;;;;;;5042352;28;20055;-56
2021/10/02 06:22:10;;;;;;;4.00;3.63;;;;;;;;;;5043267;28;20029;-59
2021/10/02 06:24:37;;;;;;;4.80;3.67;;;;;;;;;;5053521;28;20071;-59
2021/10/02 06:27:02;;;;;;;4.77;3.37;;;;;;;;;;5045928;28;20048;-59
2021/10/02 06:29:27;;;;;;;4.63;4.10;;;;;;;;;;5050088;28;20470;-58
2021/10/02 06:31:53;;;;;;;4.73;3.30;;;;;;;;;;5047791;28;20100;-58
2021/10/02 06:34:18;;;;;;;4.13;3.40;;;;;;;;;;5053450;28;20025;-60
2021/10/02 06:36:43;;;;;;;6.43;3.40;;;;;;;;;;5047986;28;20610;-59
2021/10/02 06:39:09;;;;;;;4.35;3.55;;;;;;;;;;5047707;28;20029;-59
2021/10/02 06:41:34;;;;;;;6.10;3.60;;;;;;;;;;5051357;28;20048;-59
2021/10/02 06:43:59;;;;;;;4.37;3.97;;;;;;;;;;5050168;28;20024;-59
2021/10/02 06:46:25;;;;;;;5.32;4.85;;;;;;;;;;5049230;28;20454;-59
2021/10/02 06:48:50;;;;;;;6.07;4.50;;;;;;;;;;5045532;28;20024;-56
2021/10/02 06:51:15;;;;;;;7.07;4.03;;;;;;;;;;5052041;28;20569;-58
2021/10/02 06:53:40;;;;;;;7.75;5.78;;;;;;;;;;5046536;28;20021;-57
2021/10/02 06:56:06;;;;;;;7.47;4.50;;;;;;;;;;5050917;28;20475;-58
2021/10/02 06:58:31;;;;;;;7.80;5.85;;;;;;;;;;5045633;28;20017;-58
2021/10/02 07:00:57;;;;;;;10.32;6.05;;;;;;;;;;5051644;28;20564;-60
2021/10/02 07:03:22;;;;;;;7.05;6.28;;;;;;;;;;5048954;28;20083;-59
2021/10/02 07:05:47;;;;;;;7.35;5.65;;;;;;;;;;5049261;28;20025;-57
2021/10/02 07:08:14;;;;;;;9.95;6.82;;;;;;;;;;5045396;28;20070;-55
2021/10/02 07:10:39;;;;;;;10.90;8.23;;;;;;;;;;5045499;28;20021;-57
2021/10/02 07:13:05;;;;;;;11.38;8.80;;;;;;;;;;5039607;28;20420;-58
2021/10/02 07:15:30;;;;;;;13.00;9.27;;;;;;;;;;5036683;28;20014;-55
2021/10/02 07:17:56;;;;;;;13.35;8.80;;;;;;;;;;5036902;28;20045;-58
2021/10/02 07:20:25;;;;;;;14.48;9.20;;;;;;;;;;5037598;28;20029;-59
2021/10/02 07:22:51;;;;;;;14.98;9.63;;;;;;;;;;5038907;28;20425;-56
2021/10/02 07:25:16;;;;;;;16.35;10.18;;;;;;;;;;5035277;28;20041;-57
2021/10/02 07:27:42;;;;;;;17.05;9.88;;;;;;;;;;5036131;28;20033;-57
2021/10/02 07:30:08;;;;;;;12.40;9.27;;;;;;;;;;5037474;28;20105;-57
2021/10/02 07:32:33;;;;;;;13.02;8.70;;;;;;;;;;5040662;28;20032;-56
2021/10/02 07:34:59;;;;;;;14.32;10.50;;;;;;;;;;5038888;28;20029;-58
2021/10/02 07:37:24;;;;;;;14.10;9.70;;;;;;;;;;5042351;28;20021;-60
2021/10/02 07:39:49;;;;;;;16.50;9.93;;;;;;;;;;5044839;28;20033;-57
2021/10/02 07:42:16;;;;;;;17.60;9.90;;;;;;;;;;5044331;28;20022;-59
2021/10/02 07:44:42;;;;;;;14.90;10.20;;;;;;;;;;5040166;28;20120;-60
2021/10/02 07:47:08;;;;;;;15.48;9.80;;;;;;;;;;5041810;28;20108;-57
2021/10/02 07:49:34;;;;;;;17.38;9.43;;;;;;;;;;5041694;28;20522;-56
2021/10/02 07:51:59;;;;;;;18.38;10.60;;;;;;;;;;5039296;28;20162;-59
2021/10/02 07:54:25;;;;;;;19.80;11.15;;;;;;;;;;5034599;28;20033;-58
2021/10/02 07:56:50;;;;;;;16.88;12.05;;;;;;;;;;5036688;28;20025;-59
2021/10/02 07:59:16;;;;;;;18.25;10.98;;;;;;;;;;5040652;28;20099;-59
2021/10/02 08:01:41;;;;;;;14.38;10.38;;;;;;;;;;5036878;28;20017;-59
2021/10/02 08:04:07;;;;;;;15.00;9.50;;;;;;;;;;5035178;28;20025;-60
2021/10/02 08:06:34;;;;;;;16.70;10.68;;;;;;;;;;5037552;28;20092;-60
2021/10/02 08:08:59;;;;;;;17.60;11.50;;;;;;;;;;5038801;28;20044;-59
2021/10/02 08:11:25;;;;;;;18.42;12.60;;;;;;;;;;5036305;28;20017;-57
2021/10/02 08:13:52;;;;;;;15.13;11.50;;;;;;;;;;5035379;28;20029;-59
2021/10/02 08:16:18;;;;;;;16.58;11.77;;;;;;;;;;5034734;28;20078;-59
2021/10/02 08:18:44;;;;;;;15.45;11.07;;;;;;;;;;5037726;28;20040;-58
2021/10/02 08:21:10;;;;;;;19.95;13.68;;;;;;;;;;5035856;28;20032;-59
2021/10/02 08:23:36;;;;;;;17.40;11.75;;;;;;;;;;5034081;28;20528;-59
2021/10/02 08:26:02;;;;;;;15.50;11.38;;;;;;;;;;5040231;28;20057;-58
2021/10/02 08:28:28;;;;;;;15.00;12.10;;;;;;;;;;5039034;28;20073;-59
2021/10/02 08:30:54;;;;;;;16.48;10.88;;;;;;;;;;5039049;28;20037;-59
2021/10/02 08:33:19;;;;;;;14.50;11.73;;;;;;;;;;5035104;28;20029;-60
2021/10/02 08:35:44;;;;;;;15.43;11.90;;;;;;;;;;5039189;28;20032;-58
2021/10/02 08:38:10;;;;;;;14.73;10.70;;;;;;;;;;5037212;28;20029;-59
2021/10/02 08:40:35;;;;;;;14.50;11.27;;;;;;;;;;5036591;28;20155;-57
2021/10/02 08:43:02;;;;;;;16.00;11.43;;;;;;;;;;5031726;28;20040;-59
2021/10/02 08:45:28;;;;;;;13.90;12.38;;;;;;;;;;5038055;28;20024;-58
2021/10/02 08:47:56;;;;;;;13.52;10.95;;;;;;;;;;5036379;28;20069;-59
2021/10/02 08:50:21;;;;;;;16.40;11.93;;;;;;;;;;5033214;28;20017;-59
2021/10/02 08:52:47;;;;;;;13.63;11.02;;;;;;;;;;5031913;28;20487;-61
2021/10/02 08:55:14;;;;;;;15.23;11.60;;;;;;;;;;5045245;28;20021;-59
2021/10/02 08:57:41;;;;;;;15.43;11.23;;;;;;;;;;5035655;28;20176;-59
2021/10/02 09:00:08;;;;;;;13.95;10.80;;;;;;;;;;5033629;28;20024;-60
2021/10/02 09:02:34;;;;;;;14.07;11.23;;;;;;;;;;5032888;28;20447;-60
2021/10/02 09:04:59;;;;;;;13.13;11.02;;;;;;;;;;5036873;28;20016;-60
2021/10/02 09:07:25;;;;;;;13.30;10.32;;;;;;;;;;5033065;28;20361;-60
2021/10/02 09:09:54;;;;;;;12.93;10.65;;;;;;;;;;5031460;28;20041;-60
2021/10/02 09:12:20;;;;;;;12.30;10.80;;;;;;;;;;5034697;28;20088;-59
2021/10/02 09:14:46;;;;;;;11.25;9.70;;;;;;;;;;5034783;28;20071;-60
2021/10/02 09:17:13;;;;;;;14.80;10.90;;;;;;;;;;5035884;28;20415;-58
2021/10/02 09:19:38;;;;;;;12.57;10.30;;;;;;;;;;5034014;28;20014;-60
2021/10/02 09:22:06;;;;;;;15.55;11.63;;;;;;;;;;5035865;28;20457;-59
2021/10/02 09:24:33;;;;;;;13.02;11.55;;;;;;;;;;5036549;28;20029;-57
2021/10/02 09:26:58;;;;;;;12.70;9.98;;;;;;;;;;5037294;28;20142;-59
2021/10/02 09:29:38;;;;;;;13.65;10.93;;;;;;;;;;5032772;28;20120;-58
2021/10/02 09:32:04;;;;;;;11.00;9.85;;;;;;;;;;5035366;28;20431;-58
2021/10/02 09:34:29;;;;;;;14.40;10.20;;;;;;;;;;5036801;28;20108;-61
2021/10/02 09:36:54;;;;;;;12.68;10.18;;;;;;;;;;5034772;28;20037;-61
2021/10/02 09:39:19;;;;;;;13.43;11.75;;;;;;;;;;5032469;28;20454;-61
2021/10/02 09:41:49;;;;;;;14.38;11.18;;;;;;;;;;5034914;28;20049;-59
2021/10/02 09:44:24;;;;;;;12.82;11.10;;;;;;;;;;5035523;28;20356;-59
2021/10/02 09:46:49;;;;;;;15.38;11.13;;;;;;;;;;5032974;28;20505;-59
2021/10/02 09:49:15;;;;;;;13.27;11.52;;;;;;;;;;5031473;28;20611;-59
2021/10/02 09:51:42;;;;;;;15.65;12.15;;;;;;;;;;5032374;28;20470;-55
2021/10/02 09:54:07;;;;;;;14.23;11.77;;;;;;;;;;5035445;28;20032;-57
2021/10/02 09:56:33;;;;;;;13.55;11.23;;;;;;;;;;5032449;28;20033;-59
2021/10/02 09:58:58;;;;;;;14.30;11.73;;;;;;;;;;5036250;28;20022;-58
2021/10/02 10:01:25;;;;;;;15.05;12.02;;;;;;;;;;5040826;28;20028;-59
2021/10/02 10:03:51;;;;;;;12.27;10.20;;;;;;;;;;5044117;28;20078;-60
2021/10/02 10:06:24;;;;;;;13.85;12.35;;;;;;;;;;5038573;28;20029;-58
2021/10/02 10:09:06;;;;;;;14.25;10.52;;;;;;;;;;5040867;28;20732;-56
2021/10/02 10:11:43;;;;;;;14.80;11.43;;;;;;;;;;5044386;28;20021;-60
2021/10/02 10:14:08;;;;;;;13.77;11.02;;;;;;;;;;5041608;28;20036;-59
2021/10/02 10:16:37;;;;;;;13.23;10.55;;;;;;;;;;5040641;28;20025;-59
2021/10/02 10:19:15;;;;;;;14.88;11.65;;;;;;;;;;5042190;28;20017;-59
2021/10/02 10:21:40;;;;;;;14.15;12.48;;;;;;;;;;5040966;28;20051;-59
2021/10/02 10:24:06;;;;;;;13.23;11.65;;;;;;;;;;5040387;28;20025;-57
2021/10/02 10:26:31;;;;;;;13.77;11.50;;;;;;;;;;5040644;28;20051;-57
2021/10/02 10:29:01;;;;;;;14.50;11.52;;;;;;;;;;5041350;28;20109;-57
2021/10/02 10:31:27;;;;;;;14.00;11.82;;;;;;;;;;5042451;28;20110;-60
2021/10/02 10:33:53;;;;;;;14.43;11.32;;;;;;;;;;5038779;28;20033;-60
2021/10/02 10:36:19;;;;;;;13.50;11.88;;;;;;;;;;5041827;28;20422;-60
2021/10/02 10:38:45;;;;;;;16.17;11.93;;;;;;;;;;5042366;28;20029;-59
2021/10/02 10:41:12;;;;;;;15.60;11.73;;;;;;;;;;5042212;28;20545;-60
2021/10/02 10:43:37;;;;;;;16.15;12.23;;;;;;;;;;5039586;28;20029;-59
2021/10/02 10:46:05;;;;;;;16.35;12.45;;;;;;;;;;5040182;28;20079;-60
2021/10/02 10:48:30;;;;;;;14.38;11.30;;;;;;;;;;5041551;28;20569;-60
2021/10/02 10:51:05;;;;;;;13.45;11.43;;;;;;;;;;5043003;28;20029;-60
2021/10/02 10:53:50;;;;;;;12.90;11.00;;;;;;;;;;5039626;28;20029;-60
2021/10/02 10:56:17;;;;;;;15.20;11.82;;;;;;;;;;5040135;28;20052;-59
2021/10/02 10:58:43;;;;;;;15.88;13.82;;;;;;;;;;5041329;28;20049;-59
2021/10/02 11:01:28;;;;;;;16.45;12.25;;;;;;;;;;5040438;28;20029;-57
2021/10/02 11:03:53;;;;;;;14.23;11.65;;;;;;;;;;5036854;28;20063;-59
2021/10/02 11:06:19;;;;;;;16.15;13.35;;;;;;;;;;5040042;28;20029;-60
2021/10/02 11:09:02;;;;;;;13.02;11.45;;;;;;;;;;5043395;28;20044;-59
2021/10/02 11:11:56;;;;;;;15.27;12.40;;;;;;;;;;5035718;28;20465;-60
2021/10/02 11:14:24;;;;;;;13.27;11.32;;;;;;;;;;5028175;28;20400;-59
2021/10/02 11:16:59;;;;;;;13.07;11.68;;;;;;;;;;5039815;28;20671;-59
2021/10/02 11:19:36;;;;;;;13.07;11.35;;;;;;;;;;5036843;28;20017;-61
2021/10/02 11:22:54;;;;;;;12.70;11.15;;;;;;;;;;5035522;28;20467;-60
2021/10/02 11:25:23;;;;;;;12.95;10.90;;;;;;;;;;4980217;28;20097;-56
2021/10/02 11:27:49;;;;;;;12.85;11.32;;;;;;;;;;4980815;28;20502;-59
2021/10/02 11:30:18;;;;;;;13.50;12.10;;;;;;;;;;4976498;28;20106;-58
2021/10/02 11:32:44;;;;;;;14.57;12.75;;;;;;;;;;4976352;28;20026;-60
2021/10/02 11:35:17;;;;;;;12.45;10.32;;;;;;;;;;4979268;28;20133;-60
2021/10/02 11:37:54;;;;;;;16.25;12.57;;;;;;;;;;4980779;28;20091;-60
2021/10/02 11:40:31;;;;;;;14.60;11.98;;;;;;;;;;4978840;28;20511;-59
2021/10/02 11:43:15;;;;;;;16.95;12.18;;;;;;;;;;4979052;28;20050;-63
2021/10/02 11:45:43;;;;;;;14.57;12.30;;;;;;;;;;4988774;28;20033;-63
2021/10/02 11:48:13;;;;;;;14.65;11.90;;;;;;;;;;4989311;28;20030;-60
2021/10/02 11:50:39;;;;;;;16.52;12.10;;;;;;;;;;4983491;28;20054;-63
2021/10/02 11:53:04;;;;;;;13.95;12.20;;;;;;;;;;4990265;28;20419;-60
2021/10/02 11:55:32;;;;;;;14.25;12.32;;;;;;;;;;5002641;28;20048;-58
2021/10/02 11:58:06;;;;;;;20.83;13.73;;;;;;;;;;5038739;28;20079;-60
2021/10/02 12:00:32;;;;;;;18.77;13.65;;;;;;;;;;5036278;28;20029;-60
2021/10/02 12:02:58;;;;;;;14.18;11.48;;;;;;;;;;5049212;28;20032;-60
2021/10/02 12:05:23;;;;;;;15.77;12.35;;;;;;;;;;5053628;28;20097;-60
2021/10/02 12:07:49;;;;;;;13.00;11.32;;;;;;;;;;5034993;28;20116;-61
2021/10/02 12:10:14;;;;;;;15.55;12.40;;;;;;;;;;5031076;28;20052;-60
2021/10/02 12:12:39;;;;;;;19.60;13.27;;;;;;;;;;5052783;28;20028;-60
2021/10/02 12:15:05;;;;;;;15.98;13.70;;;;;;;;;;5049756;28;20084;-61
2021/10/02 12:17:30;;;;;;;14.00;12.32;;;;;;;;;;5051069;28;20439;-61
2021/10/02 12:19:55;;;;;;;14.02;11.70;;;;;;;;;;5041371;28;20057;-60
2021/10/02 12:22:21;;;;;;;15.55;11.85;;;;;;;;;;5033716;28;20018;-60
2021/10/02 12:24:46;;;;;;;16.50;12.73;;;;;;;;;;5034340;28;20118;-61
2021/10/02 12:27:15;;;;;;;13.25;11.68;;;;;;;;;;5032412;28;20561;-61
2021/10/02 12:29:42;;;;;;;13.40;12.02;;;;;;;;;;5029185;28;20026;-58
2021/10/02 12:32:13;;;;;;;13.57;11.88;;;;;;;;;;5049213;28;20071;-60
2021/10/02 12:34:43;;;;;;;13.25;11.82;;;;;;;;;;5052213;28;20037;-60
2021/10/02 12:37:18;;;;;;;13.90;12.40;;;;;;;;;;5031423;28;20033;-60
2021/10/02 12:39:43;;;;;;;15.43;13.15;;;;;;;;;;5029876;28;20033;-60
2021/10/02 12:42:09;;;;;;;14.18;12.68;;;;;;;;;;5035716;28;20108;-58
2021/10/02 12:44:36;;;;;;;13.32;11.48;;;;;;;;;;5032575;28;20085;-60
2021/10/02 12:47:02;;;;;;;16.70;13.40;;;;;;;;;;5044599;28;20025;-60
2021/10/02 12:49:30;;;;;;;15.00;12.73;;;;;;;;;;5049684;28;20051;-59
2021/10/02 12:51:55;;;;;;;17.27;12.15;;;;;;;;;;5047470;28;20100;-61
2021/10/02 12:54:22;;;;;;;15.25;13.23;;;;;;;;;;5050440;28;20070;-59
2021/10/02 12:57:10;;;;;;;15.32;11.82;;;;;;;;;;5040970;28;20056;-59
2021/10/02 12:59:42;;;;;;;13.27;11.88;;;;;;;;;;5020513;28;20057;-59
2021/10/02 13:02:08;;;;;;;13.38;12.02;;;;;;;;;;5039083;28;20109;-61
2021/10/02 13:04:34;;;;;;;16.88;12.40;;;;;;;;;;5050180;28;20115;-60
2021/10/02 13:06:59;;;;;;;16.08;12.38;;;;;;;;;;5041054;28;20067;-59
2021/10/02 13:09:26;;;;;;;14.55;12.05;;;;;;;;;;5031590;28;20388;-60
2021/10/02 13:11:51;;;;;;;13.55;11.60;;;;;;;;;;5032973;28;20550;-61
2021/10/02 13:14:29;;;;;;;16.30;12.70;;;;;;;;;;5035907;28;20033;-59
2021/10/02 13:17:04;;;;;;;13.13;11.75;;;;;;;;;;5030280;28;20297;-59
2021/10/02 13:19:30;;;;;;;13.73;12.27;;;;;;;;;;5052519;28;20021;-59
2021/10/02 13:22:28;;;;;;;14.00;11.15;;;;;;;;;;5047954;28;20048;-61
2021/10/02 13:25:05;;;;;;;15.15;12.15;;;;;;;;;;5008218;28;20033;-58
2021/10/02 13:27:37;;;;;;;15.43;12.38;;;;;;;;;;4997866;28;20046;-58
2021/10/02 13:30:02;;;;;;;13.60;12.15;;;;;;;;;;4989741;28;20033;-58
2021/10/02 13:32:27;;;;;;;13.65;11.38;;;;;;;;;;4984874;28;20484;-61
2021/10/02 13:34:53;;;;;;;18.08;11.27;;;;;;;;;;4985644;28;20563;-59
2021/10/02 13:37:25;;;;;;;15.57;11.35;;;;;;;;;;4984796;28;20109;-59
2021/10/02 13:39:51;;;;;;;13.70;11.95;;;;;;;;;;4990220;28;20396;-60
2021/10/02 13:42:18;;;;;;;15.43;11.48;;;;;;;;;;4990732;28;20039;-59
2021/10/02 13:44:44;;;;;;;14.30;11.82;;;;;;;;;;4984671;28;20113;-58
2021/10/02 13:47:09;;;;;;;13.10;11.73;;;;;;;;;;4985921;28;20117;-58
2021/10/02 13:49:35;;;;;;;15.05;12.48;;;;;;;;;;4986953;28;20546;-61
2021/10/02 13:52:00;;;;;;;15.40;12.27;;;;;;;;;;4999634;28;20069;-60
2021/10/02 13:54:26;;;;;;;15.55;11.63;;;;;;;;;;4983023;28;20038;-58
2021/10/02 13:56:55;;;;;;;12.75;10.73;;;;;;;;;;4989626;28;20039;-60
2021/10/02 13:59:20;;;;;;;18.05;12.05;;;;;;;;;;4987478;28;20133;-59
2021/10/02 14:01:46;;;;;;;13.25;11.63;;;;;;;;;;5028611;28;20080;-60
2021/10/02 14:04:12;;;;;;;15.15;11.80;;;;;;;;;;5039400;28;20376;-59
2021/10/02 14:06:37;;;;;;;12.98;10.88;;;;;;;;;;5051526;28;20463;-60
2021/10/02 14:09:03;;;;;;;14.52;11.93;;;;;;;;;;5046594;28;20048;-60
2021/10/02 14:11:28;;;;;;;13.80;11.57;;;;;;;;;;5047289;28;20510;-59
2021/10/02 14:13:54;;;;;;;12.45;11.15;;;;;;;;;;5048492;28;20033;-60
2021/10/02 14:16:21;;;;;;;13.57;10.88;;;;;;;;;;5051019;28;20465;-60
2021/10/02 14:18:46;;;;;;;15.43;12.68;;;;;;;;;;5051368;28;20017;-60
2021/10/02 14:21:12;;;;;;;15.40;12.23;;;;;;;;;;5046862;28;20391;-60
2021/10/02 14:23:37;;;;;;;15.82;12.75;;;;;;;;;;5044028;28;20029;-58
2021/10/02 14:26:02;;;;;;;13.68;11.52;;;;;;;;;;5051360;28;20080;-60
2021/10/02 14:28:29;;;;;;;15.48;12.60;;;;;;;;;;5037927;28;20033;-60
2021/10/02 14:30:54;;;;;;;15.20;12.60;;;;;;;;;;5046588;28;20028;-59
2021/10/02 14:33:21;;;;;;;19.48;13.07;;;;;;;;;;5034454;28;20387;-59
2021/10/02 14:35:46;;;;;;;14.30;11.00;;;;;;;;;;5031159;28;20064;-59
2021/10/02 14:38:15;;;;;;;13.38;11.40;;;;;;;;;;5032080;28;20068;-60
2021/10/02 14:40:41;;;;;;;15.57;12.65;;;;;;;;;;5026957;28;20025;-60
2021/10/02 14:43:06;;;;;;;12.88;11.68;;;;;;;;;;5032180;28;20060;-58
2021/10/02 14:45:32;;;;;;;13.75;11.40;;;;;;;;;;5035831;28;20025;-59
2021/10/02 14:47:57;;;;;;;13.82;11.98;;;;;;;;;;5040920;28;20109;-58
2021/10/02 14:50:22;;;;;;;14.20;12.55;;;;;;;;;;5051854;28;20421;-60
2021/10/02 14:52:47;;;;;;;16.30;12.00;;;;;;;;;;5033339;28;20037;-60
2021/10/02 14:55:13;;;;;;;15.85;13.07;;;;;;;;;;5055320;28;20044;-60
2021/10/02 14:57:38;;;;;;;16.80;13.48;;;;;;;;;;5045228;28;20403;-59
2021/10/02 15:00:05;;;;;;;12.48;10.68;;;;;;;;;;5031681;28;20021;-60
2021/10/02 15:02:31;;;;;;;14.30;10.93;;;;;;;;;;5034810;28;20032;-59
2021/10/02 15:04:56;;;;;;;15.80;11.73;;;;;;;;;;5052698;28;20033;-56
2021/10/02 15:07:25;;;;;;;15.13;11.95;;;;;;;;;;5040227;28;20056;-59
2021/10/02 15:09:51;;;;;;;15.60;11.90;;;;;;;;;;5030914;28;20040;-59
2021/10/02 15:12:17;;;;;;;15.98;11.93;;;;;;;;;;5033217;28;20051;-59
2021/10/02 15:14:45;;;;;;;15.32;12.57;;;;;;;;;;5037268;28;20022;-60
2021/10/02 15:17:10;;;;;;;15.90;12.90;;;;;;;;;;5030958;28;20467;-58
2021/10/02 15:19:35;;;;;;;14.60;12.20;;;;;;;;;;5030685;28;20076;-59
2021/10/02 15:22:01;;;;;;;16.55;13.15;;;;;;;;;;5036018;28;20431;-59
2021/10/02 15:24:33;;;;;;;17.35;13.45;;;;;;;;;;5040193;28;20116;-59
2021/10/02 15:27:03;;;;;;;14.15;12.20;;;;;;;;;;5036279;28;20057;-58